Terminal Aerodrome Forecast
Issued by NWS Mt. Holly, NJ

Home | Current Version | Previous Version | Text Only | Print | Product List | Glossary On
Versions: 1 2 3 4 5 6 7 8 9 10 11 12 13 14 15 16 17
000
FTUS41 KPHI 230500
TAFTTN
TAF
KTTN 230533Z 2306/2406 28010G15KT P6SM SCT080
     FM231200 32018G28KT P6SM SCT200
     FM231500 32021G31KT P6SM SCT060
     FM240000 34015G25KT P6SM SKC
     FM240500 34015KT P6SM SKC=

USA.gov is the U.S. government's official web portal to all federal, state and local government web resources and services.